createdAt,value
2022-08-01T00:02:20.626Z,99.90
2022-08-01T00:04:50.966Z,99.90
2022-08-01T00:07:21.125Z,99.90
2022-08-01T00:09:53.957Z,99.90
2022-08-01T00:12:24.078Z,99.90
2022-08-01T00:14:54.450Z,99.90
2022-08-01T00:17:24.627Z,99.90
2022-08-01T00:19:54.845Z,99.90
2022-08-01T00:22:25.001Z,99.90
2022-08-01T00:24:57.835Z,99.90
2022-08-01T00:27:27.957Z,99.90
2022-08-01T00:30:13.871Z,99.90
2022-08-01T00:32:45.295Z,99.90
2022-08-01T00:35:15.958Z,99.90
2022-08-01T00:37:46.455Z,99.90
2022-08-01T00:40:19.305Z,99.90
2022-08-01T00:42:49.564Z,99.90
2022-08-01T00:45:19.880Z,99.90
2022-08-01T00:47:55.107Z,99.90
2022-08-01T00:50:25.900Z,99.90
2022-08-01T00:52:55.803Z,99.90
2022-08-01T00:55:30.681Z,99.90
2022-08-01T00:58:04.839Z,99.90
2022-08-01T01:00:52.704Z,99.90
2022-08-01T01:03:56.267Z,99.90
2022-08-01T01:06:35.199Z,99.90
2022-08-01T01:09:30.748Z,99.90
2022-08-01T01:12:11.167Z,99.90
2022-08-01T01:14:48.591Z,99.90
2022-08-01T01:20:15.725Z,99.90
2022-08-01T01:23:06.621Z,99.90
2022-08-01T01:25:53.977Z,99.90
2022-08-01T01:28:37.071Z,99.90
2022-08-01T01:31:12.086Z,99.90
2022-08-01T01:33:47.184Z,99.90
2022-08-01T01:36:20.688Z,99.90
2022-08-01T01:38:52.018Z,99.90
2022-08-01T01:41:23.734Z,99.90
2022-08-01T01:43:54.492Z,99.90
2022-08-01T01:46:29.818Z,99.90
2022-08-01T01:49:01.533Z,99.90
2022-08-01T01:51:33.458Z,99.90
2022-08-01T01:54:05.067Z,99.90
2022-08-01T01:56:36.351Z,99.90
2022-08-01T01:59:08.333Z,99.90
2022-08-01T02:01:58.632Z,99.90
2022-08-01T02:04:33.708Z,99.90
2022-08-01T02:07:05.715Z,99.90
2022-08-01T02:09:36.834Z,99.90
2022-08-01T02:12:09.248Z,99.90
2022-08-01T02:14:41.364Z,99.90
2022-08-01T02:17:16.344Z,99.90
2022-08-01T02:19:47.128Z,99.90
2022-08-01T02:22:24.079Z,99.90
2022-08-01T02:24:58.306Z,99.90
2022-08-01T02:27:32.527Z,99.90
2022-08-01T02:30:06.441Z,99.90
2022-08-01T02:32:42.317Z,99.90
2022-08-01T02:35:17.069Z,99.90
2022-08-01T02:37:49.220Z,99.90
2022-08-01T02:40:21.616Z,99.90
2022-08-01T02:42:55.551Z,99.90
2022-08-01T02:45:29.864Z,99.90
2022-08-01T02:48:09.984Z,99.90
2022-08-01T02:50:41.489Z,99.90
2022-08-01T02:53:13.460Z,99.90
2022-08-01T02:55:48.508Z,99.90
2022-08-01T02:58:20.468Z,99.90
2022-08-01T03:00:51.884Z,99.90
2022-08-01T03:03:25.646Z,99.90
2022-08-01T03:05:56.983Z,99.90
2022-08-01T03:08:28.322Z,99.90
2022-08-01T03:10:59.642Z,99.90
2022-08-01T03:13:31.528Z,99.90
2022-08-01T03:16:02.601Z,99.90
2022-08-01T03:18:36.442Z,99.90
2022-08-01T03:21:08.072Z,99.90
2022-08-01T03:23:40.376Z,99.90
2022-08-01T03:26:10.968Z,99.90
2022-08-01T03:28:44.387Z,99.90
2022-08-01T03:31:16.593Z,99.90
2022-08-01T03:33:49.287Z,99.90
2022-08-01T03:36:22.261Z,99.90
2022-08-01T03:38:55.487Z,99.90
2022-08-01T03:41:28.778Z,99.90
2022-08-01T03:44:02.361Z,99.90
2022-08-01T03:46:37.255Z,99.90
2022-08-01T03:49:15.105Z,99.90
2022-08-01T03:51:46.273Z,99.90
2022-08-01T03:54:18.366Z,99.90
2022-08-01T03:56:50.506Z,99.90
2022-08-01T03:59:21.635Z,99.90
2022-08-01T04:01:55.220Z,99.90
2022-08-01T04:04:28.334Z,99.90
2022-08-01T04:06:58.423Z,99.90
2022-08-01T04:09:28.641Z,99.90
2022-08-01T04:11:58.788Z,99.90
2022-08-01T04:14:28.890Z,99.90
2022-08-01T04:16:59.687Z,99.90
2022-08-01T04:19:32.390Z,99.90
2022-08-01T04:22:04.279Z,99.90
2022-08-01T04:24:37.565Z,99.90
2022-08-01T04:27:14.301Z,99.90
2022-08-01T04:29:45.719Z,99.90
2022-08-01T04:32:18.144Z,99.90
2022-08-01T04:34:51.765Z,99.90
2022-08-01T04:37:23.295Z,99.90
2022-08-01T04:39:56.772Z,99.90
2022-08-01T04:42:30.137Z,99.90
2022-08-01T04:45:03.584Z,99.90
2022-08-01T04:47:34.810Z,99.90
2022-08-01T04:50:10.100Z,99.90
2022-08-01T04:52:43.240Z,99.90
2022-08-01T04:55:13.799Z,99.90
2022-08-01T04:57:46.798Z,99.90
2022-08-01T05:00:18.213Z,99.90
2022-08-01T05:02:48.387Z,99.90
2022-08-01T05:05:22.048Z,99.90
2022-08-01T05:07:52.174Z,99.90
2022-08-01T05:10:22.493Z,99.90
2022-08-01T05:12:52.264Z,99.90
2022-08-01T05:15:22.478Z,99.90
2022-08-01T05:17:53.578Z,99.90
2022-08-01T05:20:26.378Z,99.90
2022-08-01T05:22:56.643Z,99.90
2022-08-01T05:25:57.438Z,99.90
2022-08-01T05:28:19.454Z,99.90
2022-08-01T05:30:49.671Z,99.90
2022-08-01T05:33:21.957Z,99.90
2022-08-01T05:35:54.676Z,99.90
2022-08-01T05:38:24.857Z,99.90
2022-08-01T05:40:55.057Z,99.90
2022-08-01T05:43:28.719Z,99.90
2022-08-01T05:45:59.674Z,99.90
2022-08-01T05:48:29.825Z,99.90
2022-08-01T05:51:02.574Z,99.90
2022-08-01T05:53:35.442Z,99.90
2022-08-01T05:56:05.708Z,99.90
2022-08-01T05:58:36.051Z,99.90
2022-08-01T06:01:05.924Z,99.90
2022-08-01T06:03:36.261Z,99.90
2022-08-01T06:06:08.782Z,99.90
2022-08-01T06:08:39.160Z,99.90
2022-08-01T06:11:09.203Z,99.90
2022-08-01T06:13:44.820Z,99.90
2022-08-01T06:16:19.365Z,99.90
2022-08-01T06:18:51.162Z,99.90
2022-08-01T06:21:25.504Z,99.90
2022-08-01T06:23:55.676Z,99.90
2022-08-01T06:26:25.855Z,99.90
2022-08-01T06:28:56.058Z,99.90
2022-08-01T06:31:28.440Z,99.90
2022-08-01T06:34:02.032Z,99.90
2022-08-01T06:36:34.817Z,99.90
2022-08-01T06:39:05.061Z,99.90
2022-08-01T06:41:35.100Z,99.90
2022-08-01T06:44:06.962Z,99.90
2022-08-01T06:46:37.265Z,99.90
2022-08-01T06:49:07.249Z,99.90
2022-08-01T06:51:39.733Z,99.90
2022-08-01T06:56:39.827Z,99.90
2022-08-01T06:59:10.018Z,99.90
2022-08-01T07:01:40.239Z,99.90
2022-08-01T07:04:10.348Z,99.90
2022-08-01T07:06:43.145Z,99.90
2022-08-01T07:09:14.608Z,99.90
2022-08-01T07:11:45.221Z,99.90
2022-08-01T07:14:15.415Z,99.90
2022-08-01T07:16:45.630Z,99.90
2022-08-01T07:19:16.236Z,99.90
2022-08-01T07:21:50.039Z,99.90
2022-08-01T07:24:21.141Z,99.90
2022-08-01T07:26:54.564Z,99.90
2022-08-01T07:29:26.651Z,99.90
2022-08-01T07:31:57.866Z,99.90
2022-08-01T07:34:29.244Z,99.90
2022-08-01T07:37:02.104Z,99.90
2022-08-01T07:39:32.378Z,99.90
2022-08-01T07:42:07.196Z,99.90
2022-08-01T07:44:43.626Z,99.90
2022-08-01T07:47:13.495Z,99.90
2022-08-01T07:49:43.711Z,99.90
2022-08-01T07:52:16.821Z,99.90
2022-08-01T07:54:51.797Z,99.90
2022-08-01T07:57:22.312Z,99.90
2022-08-01T07:59:52.532Z,99.90
2022-08-01T08:02:22.455Z,99.90
2022-08-01T08:04:52.253Z,99.90
2022-08-01T08:09:55.411Z,99.90
2022-08-01T08:12:28.990Z,99.90
2022-08-01T08:15:01.521Z,99.90
2022-08-01T08:20:09.213Z,99.90
2022-08-01T08:25:13.185Z,99.90
2022-08-01T08:27:43.471Z,99.90
2022-08-01T08:30:14.718Z,99.90
2022-08-01T08:32:45.718Z,99.90
2022-08-01T08:35:23.043Z,99.90
2022-08-01T08:37:58.135Z,99.90
2022-08-01T08:40:34.667Z,99.90
2022-08-01T08:43:06.867Z,99.90
2022-08-01T08:45:59.004Z,98.00
2022-08-01T08:48:28.874Z,97.90
2022-08-01T08:51:00.963Z,97.10
2022-08-01T08:53:35.957Z,97.80
2022-08-01T08:56:07.542Z,98.80
2022-08-01T08:58:40.631Z,99.80
2022-08-01T09:01:11.375Z,99.90
2022-08-01T09:03:41.714Z,99.90
2022-08-01T09:06:12.113Z,99.90
2022-08-01T09:08:44.737Z,99.90
2022-08-01T09:11:22.635Z,99.90
2022-08-01T09:14:07.053Z,98.70
2022-08-01T09:16:38.545Z,93.80
2022-08-01T09:19:38.782Z,91.70
2022-08-01T09:22:08.692Z,79.60
2022-08-01T09:24:43.190Z,80.30
2022-08-01T09:27:22.030Z,77.70
2022-08-01T09:30:01.497Z,75.90
2022-08-01T09:32:35.965Z,76.00
2022-08-01T09:35:30.823Z,78.50
2022-08-01T09:38:18.254Z,78.70
2022-08-01T09:40:53.193Z,79.00
2022-08-01T09:43:27.022Z,80.60
2022-08-01T09:45:58.530Z,76.10
2022-08-01T09:48:29.500Z,77.60
2022-08-01T09:51:07.340Z,82.50
2022-08-01T09:53:52.604Z,82.40
2022-08-01T09:56:26.758Z,81.20
2022-08-01T09:59:01.641Z,78.30
2022-08-01T10:01:45.266Z,75.40
2022-08-01T10:04:17.098Z,72.50
2022-08-01T10:06:55.373Z,70.30
2022-08-01T10:09:35.915Z,68.90
2022-08-01T10:12:16.259Z,68.30
2022-08-01T10:14:50.584Z,66.90
2022-08-01T10:17:22.904Z,65.20
2022-08-01T10:19:55.751Z,65.80
2022-08-01T10:22:31.177Z,64.50
2022-08-01T10:25:07.487Z,67.20
2022-08-01T10:27:42.393Z,66.40
2022-08-01T10:30:20.109Z,62.40
2022-08-01T10:32:55.318Z,62.50
2022-08-01T10:35:47.038Z,62.90
2022-08-01T10:38:16.295Z,63.70
2022-08-01T10:40:47.601Z,63.60
2022-08-01T10:43:22.096Z,65.70
2022-08-01T10:45:54.286Z,67.10
2022-08-01T10:48:32.664Z,68.80
2022-08-01T10:51:17.886Z,70.70
2022-08-01T10:53:54.705Z,72.00
2022-08-01T10:56:27.624Z,71.80
2022-08-01T10:59:11.750Z,72.50
2022-08-01T11:01:45.312Z,73.10
2022-08-01T11:04:18.075Z,73.60
2022-08-01T11:06:58.317Z,74.70
2022-08-01T11:09:36.395Z,74.30
2022-08-01T11:12:23.407Z,74.10
2022-08-01T11:15:31.850Z,72.00
2022-08-01T11:18:04.563Z,67.00
2022-08-01T11:20:41.670Z,68.10
2022-08-01T11:23:23.464Z,69.60
2022-08-01T11:26:12.686Z,69.60
2022-08-01T11:29:04.716Z,71.00
2022-08-01T11:31:38.357Z,71.50
2022-08-01T11:34:08.882Z,70.90
2022-08-01T11:39:29.618Z,72.00
2022-08-01T11:42:23.690Z,72.30
2022-08-01T11:44:58.418Z,72.70
2022-08-01T11:47:53.039Z,72.20
2022-08-01T11:50:37.029Z,71.00
2022-08-01T11:53:09.391Z,69.70
2022-08-01T11:55:51.314Z,70.10
2022-08-01T11:58:29.498Z,70.40
2022-08-01T12:01:03.355Z,70.30
2022-08-01T12:03:37.256Z,71.10
2022-08-01T12:06:07.663Z,70.70
2022-08-01T12:08:38.421Z,70.70
2022-08-01T12:11:09.429Z,70.70
2022-08-01T12:13:47.697Z,71.60
2022-08-01T12:16:17.832Z,71.40
2022-08-01T12:18:51.295Z,71.70
2022-08-01T12:21:21.401Z,71.60
2022-08-01T12:24:03.626Z,71.40
2022-08-01T12:26:44.178Z,71.20
2022-08-01T12:29:35.390Z,70.00
2022-08-01T12:32:06.077Z,69.60
2022-08-01T12:34:39.378Z,69.20
2022-08-01T12:37:09.891Z,69.30
2022-08-01T12:39:42.480Z,71.20
2022-08-01T12:42:13.598Z,70.80
2022-08-01T12:44:45.962Z,68.70
2022-08-01T12:47:17.828Z,68.00
2022-08-01T12:49:52.129Z,67.30
2022-08-01T12:52:26.837Z,67.00
2022-08-01T12:55:13.256Z,66.30
2022-08-01T12:57:45.745Z,66.30
2022-08-01T13:00:22.995Z,65.20
2022-08-01T13:02:54.697Z,65.40
2022-08-01T13:05:29.199Z,64.60
2022-08-01T13:07:59.355Z,64.80
2022-08-01T13:10:30.220Z,63.90
2022-08-01T13:13:02.835Z,63.30
2022-08-01T13:15:36.076Z,63.00
2022-08-01T13:18:29.274Z,63.80
2022-08-01T13:21:16.716Z,63.80
2022-08-01T13:24:06.279Z,66.20
2022-08-01T13:26:45.387Z,65.50
2022-08-01T13:29:17.471Z,65.30
2022-08-01T13:31:48.142Z,65.10
2022-08-01T13:34:19.655Z,64.00
2022-08-01T13:36:53.633Z,62.50
2022-08-01T13:39:36.129Z,60.50
2022-08-01T13:42:06.884Z,60.30
2022-08-01T13:44:37.219Z,61.20
2022-08-01T13:47:15.119Z,61.90
2022-08-01T13:49:46.150Z,63.20
2022-08-01T13:52:19.147Z,62.30
2022-08-01T13:54:49.165Z,62.20
2022-08-01T13:57:21.927Z,62.40
2022-08-01T13:59:52.538Z,63.00
2022-08-01T14:02:23.617Z,62.70
2022-08-01T14:04:53.692Z,61.60
2022-08-01T14:07:26.226Z,60.40
2022-08-01T14:10:18.313Z,58.80
2022-08-01T14:12:49.322Z,57.80
2022-08-01T14:15:38.546Z,59.10
2022-08-01T14:18:10.855Z,58.80
2022-08-01T14:20:42.250Z,59.30
2022-08-01T14:23:15.252Z,59.70
2022-08-01T14:28:35.765Z,59.20
2022-08-01T14:31:07.317Z,59.30
2022-08-01T14:33:37.528Z,59.80
2022-08-01T14:36:28.957Z,60.40
2022-08-01T14:39:01.122Z,59.70
2022-08-01T14:41:31.438Z,60.70
2022-08-01T14:44:02.266Z,60.40
2022-08-01T14:46:34.095Z,61.30
2022-08-01T14:49:04.356Z,60.70
2022-08-01T14:51:38.279Z,61.60
2022-08-01T14:54:11.344Z,61.10
2022-08-01T14:56:41.634Z,61.10
2022-08-01T14:59:21.513Z,60.40
2022-08-01T15:04:22.976Z,60.30
2022-08-01T15:06:53.120Z,61.70
2022-08-01T15:09:25.633Z,61.60
2022-08-01T15:11:55.856Z,61.50
2022-08-01T15:17:09.061Z,59.70
2022-08-01T15:19:42.101Z,62.00
2022-08-01T15:22:12.986Z,61.90
2022-08-01T15:24:46.211Z,63.60
2022-08-01T15:27:16.427Z,61.00
2022-08-01T15:29:46.430Z,61.60
2022-08-01T15:32:16.655Z,61.30
2022-08-01T15:34:47.856Z,60.00
2022-08-01T15:37:18.726Z,62.30
2022-08-01T15:42:27.319Z,63.10
2022-08-01T15:44:57.606Z,64.60
2022-08-01T15:47:27.449Z,64.90
2022-08-01T15:50:00.669Z,64.80
2022-08-01T15:52:31.884Z,65.10
2022-08-01T15:55:05.549Z,65.80
2022-08-01T15:57:35.792Z,65.60
2022-08-01T16:00:07.196Z,65.40
2022-08-01T16:02:37.511Z,65.40
2022-08-01T16:05:08.489Z,64.80
2022-08-01T16:07:58.064Z,65.60
2022-08-01T16:10:31.664Z,65.60
2022-08-01T16:13:07.085Z,65.80
2022-08-01T16:15:38.340Z,65.60
2022-08-01T16:18:09.253Z,64.40
2022-08-01T16:20:45.019Z,65.30
2022-08-01T16:23:17.008Z,65.90
2022-08-01T16:25:49.899Z,65.90
2022-08-01T16:28:20.296Z,66.60
2022-08-01T16:30:55.892Z,66.30
2022-08-01T16:33:51.091Z,66.50
2022-08-01T16:36:25.194Z,65.70
2022-08-01T16:38:55.539Z,66.40
2022-08-01T16:41:28.377Z,66.50
2022-08-01T16:43:58.510Z,65.60
2022-08-01T16:46:29.306Z,66.10
2022-08-01T16:48:59.831Z,65.00
2022-08-01T16:51:32.533Z,66.80
2022-08-01T16:54:03.219Z,66.30
2022-08-01T16:56:39.452Z,65.60
2022-08-01T16:59:09.730Z,64.90
2022-08-01T17:01:58.061Z,64.50
2022-08-01T17:04:31.895Z,66.00
2022-08-01T17:07:02.263Z,65.30
2022-08-01T17:09:32.363Z,65.90
2022-08-01T17:12:05.213Z,65.40
2022-08-01T17:14:35.352Z,65.90
2022-08-01T17:17:06.559Z,66.90
2022-08-01T17:19:37.119Z,67.10
2022-08-01T17:22:07.420Z,67.30
2022-08-01T17:24:37.599Z,67.70
2022-08-01T17:27:12.981Z,66.90
2022-08-01T17:29:44.630Z,67.00
2022-08-01T17:32:16.173Z,65.60
2022-08-01T17:34:46.638Z,66.40
2022-08-01T17:37:16.919Z,65.30
2022-08-01T17:39:48.406Z,66.10
2022-08-01T17:42:21.304Z,67.70
2022-08-01T17:44:52.163Z,68.10
2022-08-01T17:47:48.409Z,68.40
2022-08-01T17:50:16.126Z,68.30
2022-08-01T17:52:46.507Z,68.80
2022-08-01T17:55:53.503Z,68.60
2022-08-01T17:58:09.477Z,66.70
2022-08-01T18:00:39.760Z,66.40
2022-08-01T18:03:09.767Z,67.80
2022-08-01T18:05:40.313Z,68.60
2022-08-01T18:08:10.701Z,69.00
2022-08-01T18:10:41.254Z,68.20
2022-08-01T18:13:16.744Z,67.80
2022-08-01T18:15:46.963Z,67.70
2022-08-01T18:18:33.600Z,68.30
2022-08-01T18:21:04.506Z,68.80
2022-08-01T18:23:35.266Z,68.70
2022-08-01T18:26:07.630Z,68.50
2022-08-01T18:28:46.257Z,69.50
2022-08-01T18:31:17.981Z,69.20
2022-08-01T18:33:49.061Z,69.80
2022-08-01T18:36:32.476Z,69.60
2022-08-01T18:39:05.462Z,70.30
2022-08-01T18:41:37.031Z,70.90
2022-08-01T18:44:10.457Z,70.10
2022-08-01T18:46:41.912Z,70.40
2022-08-01T18:49:14.360Z,70.80
2022-08-01T18:51:45.446Z,70.00
2022-08-01T18:54:16.013Z,70.60
2022-08-01T18:56:47.413Z,70.20
2022-08-01T18:59:21.769Z,70.90
2022-08-01T19:01:52.036Z,70.40
2022-08-01T19:04:22.019Z,69.90
2022-08-01T19:06:52.048Z,71.20
2022-08-01T19:09:23.280Z,70.80
2022-08-01T19:11:53.670Z,71.20
2022-08-01T19:14:26.539Z,71.50
2022-08-01T19:16:56.710Z,71.10
2022-08-01T19:19:28.106Z,70.80
2022-08-01T19:21:58.658Z,70.90
2022-08-01T19:24:28.666Z,72.20
2022-08-01T19:27:08.371Z,72.50
2022-08-01T19:29:43.163Z,72.00
2022-08-01T19:32:13.393Z,72.80
2022-08-01T19:34:50.520Z,72.20
2022-08-01T19:37:26.756Z,71.80
2022-08-01T19:39:57.769Z,72.90
2022-08-01T19:42:28.618Z,71.50
2022-08-01T19:45:02.522Z,72.00
2022-08-01T19:47:56.733Z,73.60
2022-08-01T19:50:24.139Z,72.50
2022-08-01T19:52:55.836Z,72.70
2022-08-01T19:55:27.348Z,73.20
2022-08-01T19:58:24.489Z,74.20
2022-08-01T20:00:53.022Z,74.30
2022-08-01T20:03:25.186Z,75.00
2022-08-01T20:05:55.505Z,75.60
2022-08-01T20:08:26.187Z,76.00
2022-08-01T20:10:57.254Z,75.80
2022-08-01T20:13:36.888Z,76.20
2022-08-01T20:16:12.584Z,76.90
2022-08-01T20:18:43.522Z,75.70
2022-08-01T20:21:16.246Z,75.50
2022-08-01T20:23:48.197Z,75.30
2022-08-01T20:26:19.212Z,75.20
2022-08-01T20:28:51.375Z,74.80
2022-08-01T20:31:25.598Z,75.10
2022-08-01T20:33:59.851Z,74.00
2022-08-01T20:36:31.264Z,74.90
2022-08-01T20:39:05.135Z,74.80
2022-08-01T20:41:39.276Z,75.00
2022-08-01T20:44:11.719Z,74.50
2022-08-01T20:46:44.724Z,74.60
2022-08-01T20:49:15.472Z,74.50
2022-08-01T20:51:49.025Z,74.40
2022-08-01T20:54:19.314Z,75.00
2022-08-01T20:56:58.629Z,73.30
2022-08-01T20:59:56.223Z,74.50
2022-08-01T21:02:42.417Z,73.40
2022-08-01T21:05:14.512Z,74.20
2022-08-01T21:07:52.448Z,74.70
2022-08-01T21:10:26.224Z,73.70
2022-08-01T21:13:06.544Z,73.80
2022-08-01T21:15:56.734Z,74.90
2022-08-01T21:18:39.836Z,75.80
2022-08-01T21:21:20.478Z,74.80
2022-08-01T21:23:55.929Z,74.40
2022-08-01T21:29:00.592Z,74.30
2022-08-01T21:31:41.015Z,74.50
2022-08-01T21:34:14.229Z,74.60
2022-08-01T21:36:48.825Z,74.60
2022-08-01T21:39:19.636Z,75.10
2022-08-01T21:42:04.918Z,74.10
2022-08-01T21:44:39.711Z,75.70
2022-08-01T21:47:11.677Z,75.80
2022-08-01T21:49:45.144Z,74.50
2022-08-01T21:52:21.476Z,75.30
2022-08-01T21:55:10.825Z,74.70
2022-08-01T21:57:54.804Z,75.10
2022-08-01T22:00:26.383Z,76.10
2022-08-01T22:03:04.149Z,75.80
2022-08-01T22:05:49.611Z,77.60
2022-08-01T22:08:30.906Z,77.70
2022-08-01T22:11:04.223Z,77.50
2022-08-01T22:13:35.676Z,78.40
2022-08-01T22:16:07.525Z,77.50
2022-08-01T22:18:39.417Z,78.90
2022-08-01T22:21:13.553Z,79.10
2022-08-01T22:23:45.133Z,79.60
2022-08-01T22:26:16.089Z,79.40
2022-08-01T22:28:47.907Z,80.30
2022-08-01T22:31:19.798Z,79.70
2022-08-01T22:36:24.414Z,80.30
2022-08-01T22:38:54.850Z,81.00
2022-08-01T22:44:03.549Z,80.00
2022-08-01T22:46:42.936Z,80.90
2022-08-01T22:49:23.852Z,80.80
2022-08-01T22:52:06.736Z,81.10
2022-08-01T22:54:39.827Z,80.90
2022-08-01T22:57:15.280Z,80.80
2022-08-01T22:59:51.483Z,82.00
2022-08-01T23:02:23.584Z,81.70
2022-08-01T23:04:58.466Z,81.10
2022-08-01T23:07:35.044Z,81.40
2022-08-01T23:10:08.866Z,81.20
2022-08-01T23:12:40.584Z,81.10
2022-08-01T23:15:12.643Z,81.10
2022-08-01T23:17:45.552Z,81.80
2022-08-01T23:20:15.913Z,80.90
2022-08-01T23:22:48.914Z,81.70
2022-08-01T23:25:20.104Z,82.30
2022-08-01T23:28:04.061Z,82.40
2022-08-01T23:30:37.610Z,82.50
2022-08-01T23:33:08.037Z,82.30
2022-08-01T23:35:39.207Z,82.20
2022-08-01T23:38:15.275Z,83.40
2022-08-01T23:40:45.648Z,81.70
2022-08-01T23:43:17.614Z,82.10
2022-08-01T23:46:02.840Z,82.10
2022-08-01T23:48:36.251Z,82.30
2022-08-01T23:51:07.842Z,82.30
2022-08-01T23:53:42.128Z,82.20
2022-08-01T23:56:19.191Z,82.40
2022-08-01T23:58:53.970Z,82.80
